createdAt,value
2023-04-03T00:00:48.079Z,5.70
2023-04-03T00:03:14.867Z,5.70
2023-04-03T00:05:42.289Z,5.60
2023-04-03T00:08:10.513Z,5.50
2023-04-03T00:10:38.323Z,5.50
2023-04-03T00:13:07.081Z,5.50
2023-04-03T00:15:34.641Z,5.50
2023-04-03T00:18:01.733Z,5.40
2023-04-03T00:20:28.810Z,5.40
2023-04-03T00:22:56.098Z,5.40
2023-04-03T00:25:23.318Z,5.30
2023-04-03T00:27:50.269Z,5.30
2023-04-03T00:30:18.980Z,5.20
2023-04-03T00:32:46.116Z,5.10
2023-04-03T00:35:16.618Z,5.10
2023-04-03T00:37:44.448Z,5.10
2023-04-03T00:40:13.090Z,5.00
2023-04-03T00:42:41.711Z,5.00
2023-04-03T00:45:14.198Z,5.00
2023-04-03T00:47:42.194Z,5.00
2023-04-03T00:50:09.394Z,4.90
2023-04-03T00:52:37.722Z,4.90
2023-04-03T00:55:08.529Z,4.90
2023-04-03T00:57:36.265Z,4.80
2023-04-03T01:00:10.369Z,4.80
2023-04-03T01:02:38.014Z,4.80
2023-04-03T01:05:05.872Z,4.80
2023-04-03T01:07:34.869Z,4.70
2023-04-03T01:10:05.865Z,4.70
2023-04-03T01:12:39.038Z,4.80
2023-04-03T01:15:10.440Z,4.80
2023-04-03T01:17:41.689Z,4.80
2023-04-03T01:20:32.810Z,4.80
2023-04-03T01:23:14.483Z,4.80
2023-04-03T01:25:43.391Z,4.80
2023-04-03T01:28:16.410Z,4.80
2023-04-03T01:30:53.812Z,4.80
2023-04-03T01:33:20.761Z,4.80
2023-04-03T01:35:47.527Z,4.80
2023-04-03T01:38:14.409Z,4.90
2023-04-03T01:40:41.343Z,4.90
2023-04-03T01:43:08.095Z,4.90
2023-04-03T01:45:34.911Z,4.90
2023-04-03T01:48:02.057Z,4.90
2023-04-03T01:50:28.842Z,4.80
2023-04-03T01:52:55.639Z,4.80
2023-04-03T01:55:22.369Z,4.80
2023-04-03T01:57:49.124Z,4.70
2023-04-03T02:00:16.492Z,4.70
2023-04-03T02:02:43.477Z,4.60
2023-04-03T02:05:10.383Z,4.50
2023-04-03T02:07:37.376Z,4.40
2023-04-03T02:10:04.243Z,4.40
2023-04-03T02:12:31.000Z,4.40
2023-04-03T02:14:57.710Z,4.30
2023-04-03T02:17:24.509Z,4.30
2023-04-03T02:19:51.290Z,4.30
2023-04-03T02:22:18.177Z,4.20
2023-04-03T02:24:45.604Z,4.20
2023-04-03T02:27:12.473Z,4.20
2023-04-03T02:29:39.237Z,4.20
2023-04-03T02:32:06.403Z,4.20
2023-04-03T02:34:33.197Z,4.10
2023-04-03T02:37:00.147Z,4.10
2023-04-03T02:39:27.184Z,4.10
2023-04-03T02:41:53.935Z,4.10
2023-04-03T02:44:20.695Z,4.10
2023-04-03T02:46:47.527Z,4.10
2023-04-03T02:49:14.277Z,4.00
2023-04-03T02:51:41.042Z,4.00
2023-04-03T02:54:08.009Z,4.00
2023-04-03T02:56:35.274Z,4.00
2023-04-03T02:59:01.988Z,3.90
2023-04-03T03:01:32.534Z,3.90
2023-04-03T03:04:02.415Z,3.80
2023-04-03T03:06:29.221Z,3.80
2023-04-03T03:08:56.166Z,3.80
2023-04-03T03:11:23.053Z,3.70
2023-04-03T03:13:49.853Z,3.70
2023-04-03T03:16:16.613Z,3.70
2023-04-03T03:18:43.482Z,3.60
2023-04-03T03:21:11.542Z,3.60
2023-04-03T03:23:38.454Z,3.60
2023-04-03T03:26:07.918Z,3.60
2023-04-03T03:28:35.764Z,3.60
2023-04-03T03:31:02.590Z,3.60
2023-04-03T03:33:29.735Z,3.60
2023-04-03T03:35:57.124Z,3.60
2023-04-03T03:38:24.785Z,3.50
2023-04-03T03:40:52.311Z,3.50
2023-04-03T03:43:19.619Z,3.50
2023-04-03T03:45:47.285Z,3.50
2023-04-03T03:48:14.016Z,3.50
2023-04-03T03:50:40.785Z,3.50
2023-04-03T03:53:07.532Z,3.50
2023-04-03T03:55:34.525Z,3.50
2023-04-03T03:58:02.166Z,3.50
2023-04-03T04:00:29.009Z,3.50
2023-04-03T04:02:58.653Z,3.50
2023-04-03T04:05:26.470Z,3.50
2023-04-03T04:07:53.146Z,3.50
2023-04-03T04:10:19.901Z,3.50
2023-04-03T04:12:46.803Z,3.50
2023-04-03T04:15:13.604Z,3.50
2023-04-03T04:17:40.471Z,3.50
2023-04-03T04:20:07.630Z,3.50
2023-04-03T04:22:34.467Z,3.40
2023-04-03T04:25:01.197Z,3.40
2023-04-03T04:27:27.958Z,3.40
2023-04-03T04:29:54.719Z,3.40
2023-04-03T04:32:21.459Z,3.40
2023-04-03T04:34:48.263Z,3.40
2023-04-03T04:37:15.005Z,3.50
2023-04-03T04:39:41.738Z,3.50
2023-04-03T04:42:15.028Z,3.50
2023-04-03T04:44:43.433Z,3.40
2023-04-03T04:47:10.296Z,3.50
2023-04-03T04:49:37.254Z,3.50
2023-04-03T04:52:04.030Z,3.40
2023-04-03T04:54:30.744Z,3.40
2023-04-03T04:56:57.470Z,3.40
2023-04-03T04:59:24.215Z,3.40
2023-04-03T05:01:51.097Z,3.30
2023-04-03T05:04:18.403Z,3.30
2023-04-03T05:06:45.260Z,3.30
2023-04-03T05:09:12.189Z,3.20
2023-04-03T05:11:38.893Z,3.20
2023-04-03T05:14:07.632Z,3.20
2023-04-03T05:16:34.788Z,3.20
2023-04-03T05:19:01.625Z,3.20
2023-04-03T05:21:32.910Z,3.20
2023-04-03T05:24:03.527Z,3.20
2023-04-03T05:26:31.226Z,3.20
2023-04-03T05:28:58.346Z,3.20
2023-04-03T05:31:25.302Z,3.20
2023-04-03T05:33:52.248Z,3.10
2023-04-03T05:36:19.505Z,3.20
2023-04-03T05:38:46.598Z,3.20
2023-04-03T05:41:13.982Z,3.20
2023-04-03T05:43:41.039Z,3.20
2023-04-03T05:46:16.368Z,3.20
2023-04-03T05:48:44.167Z,3.20
2023-04-03T05:51:26.983Z,3.30
2023-04-03T05:54:06.934Z,3.30
2023-04-03T05:56:33.696Z,3.40
2023-04-03T05:59:00.509Z,3.40
2023-04-03T06:01:27.441Z,3.50
2023-04-03T06:03:55.211Z,3.50
2023-04-03T06:06:23.157Z,3.60
2023-04-03T06:08:50.350Z,3.60
2023-04-03T06:11:17.529Z,3.60
2023-04-03T06:13:44.471Z,3.70
2023-04-03T06:16:16.299Z,3.70
2023-04-03T06:18:43.488Z,3.80
2023-04-03T06:21:10.343Z,3.80
2023-04-03T06:23:37.342Z,3.80
2023-04-03T06:26:04.547Z,3.90
2023-04-03T06:28:31.271Z,3.90
2023-04-03T06:30:58.038Z,3.90
2023-04-03T06:33:24.778Z,4.00
2023-04-03T06:35:57.885Z,4.00
2023-04-03T06:38:24.836Z,4.10
2023-04-03T06:40:52.693Z,4.10
2023-04-03T06:43:19.374Z,4.10
2023-04-03T06:45:46.241Z,4.20
2023-04-03T06:48:13.812Z,4.20
2023-04-03T06:50:41.026Z,4.20
2023-04-03T06:53:08.153Z,4.20
2023-04-03T06:55:35.189Z,4.20
2023-04-03T06:58:02.407Z,4.30
2023-04-03T07:00:29.386Z,4.30
2023-04-03T07:02:57.675Z,4.30
2023-04-03T07:05:25.790Z,4.40
2023-04-03T07:07:54.243Z,4.50
2023-04-03T07:10:21.500Z,4.50
2023-04-03T07:12:48.218Z,4.60
2023-04-03T07:15:15.615Z,4.70
2023-04-03T07:17:42.871Z,4.70
2023-04-03T07:20:10.180Z,4.60
2023-04-03T07:22:36.988Z,4.70
2023-04-03T07:25:04.499Z,4.80
2023-04-03T07:27:31.489Z,4.90
2023-04-03T07:29:58.351Z,4.80
2023-04-03T07:32:25.077Z,4.80
2023-04-03T07:34:52.276Z,4.90
2023-04-03T07:37:19.610Z,4.90
2023-04-03T07:39:46.502Z,5.00
2023-04-03T07:42:16.339Z,5.10
2023-04-03T07:44:43.743Z,5.10
2023-04-03T07:47:11.018Z,5.10
2023-04-03T07:49:40.665Z,5.20
2023-04-03T07:52:08.158Z,5.20
2023-04-03T07:54:35.115Z,5.30
2023-04-03T07:57:02.269Z,5.40
2023-04-03T07:59:29.010Z,5.40
2023-04-03T08:01:55.746Z,5.40
2023-04-03T08:04:22.565Z,5.50
2023-04-03T08:06:49.469Z,5.60
2023-04-03T08:09:16.949Z,5.80
2023-04-03T08:11:44.406Z,5.70
2023-04-03T08:14:16.477Z,5.80
2023-04-03T08:16:45.069Z,5.90
2023-04-03T08:19:22.413Z,5.90
2023-04-03T08:21:52.590Z,6.00
2023-04-03T08:24:19.309Z,6.00
2023-04-03T08:26:46.007Z,6.10
2023-04-03T08:29:12.773Z,6.20
2023-04-03T08:31:40.030Z,6.30
2023-04-03T08:34:07.068Z,6.30
2023-04-03T08:36:33.888Z,6.40
2023-04-03T08:39:00.580Z,6.60
2023-04-03T08:41:56.384Z,6.70
2023-04-03T08:44:57.558Z,6.70
2023-04-03T08:47:55.384Z,6.80
2023-04-03T08:50:37.021Z,6.90
2023-04-03T08:53:07.552Z,7.20
2023-04-03T08:55:54.351Z,7.40
2023-04-03T08:58:51.390Z,7.50
2023-04-03T09:01:22.361Z,7.70
2023-04-03T09:03:49.146Z,7.80
2023-04-03T09:06:26.455Z,7.80
2023-04-03T09:09:00.008Z,7.90
2023-04-03T09:11:38.938Z,8.00
2023-04-03T09:14:27.014Z,7.90
2023-04-03T09:16:58.349Z,7.80
2023-04-03T09:19:39.977Z,7.80
2023-04-03T09:22:22.643Z,7.90
2023-04-03T09:24:58.471Z,7.90
2023-04-03T09:27:25.875Z,8.00
2023-04-03T09:29:56.082Z,8.10
2023-04-03T09:32:30.939Z,8.30
2023-04-03T09:37:41.315Z,8.40
2023-04-03T09:40:29.956Z,8.30
2023-04-03T09:43:01.597Z,8.40
2023-04-03T09:45:33.097Z,8.50
2023-04-03T09:48:16.783Z,8.60
2023-04-03T09:51:02.474Z,8.70
2023-04-03T09:53:37.022Z,8.60
2023-04-03T09:56:26.800Z,8.60
2023-04-03T09:59:13.818Z,8.60
2023-04-03T10:01:44.261Z,8.70
2023-04-03T10:04:12.403Z,8.70
2023-04-03T10:06:53.181Z,8.70
2023-04-03T10:09:24.166Z,8.80
2023-04-03T10:12:09.756Z,8.70
2023-04-03T10:14:59.860Z,8.80
2023-04-03T10:18:14.357Z,8.90
2023-04-03T10:20:53.100Z,8.80
2023-04-03T10:23:30.484Z,8.80
2023-04-03T10:26:03.249Z,9.00
2023-04-03T10:29:00.938Z,9.20
2023-04-03T10:31:51.807Z,9.60
2023-04-03T10:34:24.592Z,9.50
2023-04-03T10:37:09.849Z,9.40
2023-04-03T10:39:59.996Z,9.50
2023-04-03T10:42:40.858Z,9.50
2023-04-03T10:45:47.726Z,9.50
2023-04-03T10:48:34.404Z,9.50
2023-04-03T10:51:16.099Z,9.50
2023-04-03T10:54:11.716Z,9.70
2023-04-03T10:56:42.731Z,9.80
2023-04-03T10:59:15.499Z,9.80
2023-04-03T11:01:45.137Z,10.00
2023-04-03T11:04:13.911Z,10.00
2023-04-03T11:06:46.725Z,10.10
2023-04-03T11:09:42.024Z,9.80
2023-04-03T11:12:20.467Z,9.90
2023-04-03T11:14:50.788Z,9.90
2023-04-03T11:17:24.915Z,10.00
2023-04-03T11:20:15.191Z,10.20
2023-04-03T11:23:06.625Z,10.20
2023-04-03T11:25:37.935Z,10.00
2023-04-03T11:28:07.977Z,10.00
2023-04-03T11:30:41.207Z,10.20
2023-04-03T11:33:20.840Z,10.30
2023-04-03T11:35:52.111Z,10.20
2023-04-03T11:38:27.161Z,10.30
2023-04-03T11:40:56.476Z,10.40
2023-04-03T11:43:26.715Z,10.50
2023-04-03T11:45:56.393Z,10.60
2023-04-03T11:48:34.669Z,10.60
2023-04-03T11:51:13.653Z,10.80
2023-04-03T11:53:41.932Z,10.80
2023-04-03T11:56:27.076Z,11.00
2023-04-03T11:59:15.223Z,11.00
2023-04-03T12:01:46.794Z,11.00
2023-04-03T12:04:16.894Z,11.30
2023-04-03T12:06:52.586Z,11.50
2023-04-03T12:09:56.396Z,11.30
2023-04-03T12:12:40.550Z,11.20
2023-04-03T12:15:28.126Z,11.40
2023-04-03T12:17:55.117Z,11.40
2023-04-03T12:20:49.438Z,11.60
2023-04-03T12:23:35.630Z,11.80
2023-04-03T12:26:28.235Z,11.90
2023-04-03T12:29:00.180Z,12.30
2023-04-03T12:31:42.098Z,12.20
2023-04-03T12:34:40.691Z,12.20
2023-04-03T12:37:33.725Z,12.20
2023-04-03T12:40:08.989Z,12.20
2023-04-03T12:42:41.964Z,12.20
2023-04-03T12:45:21.715Z,12.50
2023-04-03T12:47:51.724Z,12.60
2023-04-03T12:50:24.902Z,12.70
2023-04-03T12:52:58.604Z,12.70
2023-04-03T12:55:25.707Z,12.90
2023-04-03T12:57:52.468Z,12.90
2023-04-03T13:00:35.366Z,13.10
2023-04-03T13:03:04.591Z,13.30
2023-04-03T13:05:34.592Z,13.30
2023-04-03T13:08:07.160Z,13.50
2023-04-03T13:11:03.716Z,13.50
2023-04-03T13:13:30.659Z,13.70
2023-04-03T13:15:58.538Z,14.20
2023-04-03T13:18:35.854Z,14.20
2023-04-03T13:21:33.651Z,14.30
2023-04-03T13:24:14.715Z,14.70
2023-04-03T13:26:43.295Z,14.70
2023-04-03T13:29:31.355Z,14.80
2023-04-03T13:32:00.926Z,14.50
2023-04-03T13:34:32.468Z,14.90
2023-04-03T13:37:01.791Z,14.90
2023-04-03T13:39:31.701Z,14.90
2023-04-03T13:42:16.895Z,15.00
2023-04-03T13:44:44.111Z,15.30
2023-04-03T13:47:16.894Z,15.90
2023-04-03T13:49:59.072Z,15.90
2023-04-03T13:52:36.687Z,15.90
2023-04-03T13:55:27.238Z,15.90
2023-04-03T13:58:14.194Z,16.40
2023-04-03T14:01:07.594Z,16.70
2023-04-03T14:03:41.187Z,16.80
2023-04-03T14:06:16.420Z,17.00
2023-04-03T14:08:44.666Z,16.60
2023-04-03T14:11:19.734Z,17.10
2023-04-03T14:13:48.048Z,17.50
2023-04-03T14:16:17.950Z,17.80
2023-04-03T14:18:46.741Z,18.00
2023-04-03T14:21:15.770Z,16.70
2023-04-03T14:23:42.815Z,15.30
2023-04-03T14:26:21.811Z,14.50
2023-04-03T14:28:52.359Z,14.20
2023-04-03T14:31:20.451Z,13.70
2023-04-03T14:33:47.800Z,13.20
2023-04-03T14:36:24.336Z,13.00
2023-04-03T14:38:51.968Z,12.70
2023-04-03T14:41:21.483Z,12.50
2023-04-03T14:43:48.977Z,12.40
2023-04-03T14:46:35.137Z,12.40
2023-04-03T14:49:17.634Z,12.00
2023-04-03T14:51:44.877Z,11.80
2023-04-03T14:54:18.386Z,11.90
2023-04-03T14:56:45.655Z,11.90
2023-04-03T14:59:14.743Z,11.80
2023-04-03T15:01:41.911Z,11.70
2023-04-03T15:04:17.237Z,11.70
2023-04-03T15:06:45.320Z,11.70
2023-04-03T15:09:29.804Z,11.60
2023-04-03T15:11:56.643Z,11.50
2023-04-03T15:14:35.957Z,11.60
2023-04-03T15:17:08.066Z,11.60
2023-04-03T15:19:38.340Z,11.50
2023-04-03T15:22:05.401Z,11.40
2023-04-03T15:24:32.264Z,11.40
2023-04-03T15:26:59.278Z,11.30
2023-04-03T15:29:26.052Z,11.40
2023-04-03T15:31:54.637Z,11.50
2023-04-03T15:34:22.922Z,11.60
2023-04-03T15:36:51.175Z,11.60
2023-04-03T15:39:17.996Z,11.50
2023-04-03T15:41:46.241Z,11.30
2023-04-03T15:44:13.999Z,11.30
2023-04-03T15:46:40.971Z,11.30
2023-04-03T15:49:07.961Z,11.10
2023-04-03T15:51:34.728Z,11.10
2023-04-03T15:54:01.438Z,11.10
2023-04-03T15:56:28.283Z,11.10
2023-04-03T15:58:55.118Z,11.20
2023-04-03T16:01:22.335Z,11.20
2023-04-03T16:03:49.401Z,11.10
2023-04-03T16:06:19.507Z,11.00
2023-04-03T16:08:48.484Z,11.00
2023-04-03T16:11:15.418Z,11.00
2023-04-03T16:13:43.062Z,10.90
2023-04-03T16:16:10.704Z,10.90
2023-04-03T16:18:38.024Z,10.90
2023-04-03T16:21:06.523Z,10.90
2023-04-03T16:23:33.325Z,10.70
2023-04-03T16:26:00.279Z,10.60
2023-04-03T16:28:27.006Z,10.70
2023-04-03T16:30:53.853Z,10.70
2023-04-03T16:33:22.489Z,10.70
2023-04-03T16:35:51.760Z,10.60
2023-04-03T16:38:19.861Z,10.50
2023-04-03T16:40:47.238Z,10.40
2023-04-03T16:43:13.992Z,10.40
2023-04-03T16:45:40.939Z,10.40
2023-04-03T16:48:08.025Z,10.20
2023-04-03T16:50:35.115Z,10.10
2023-04-03T16:53:03.947Z,10.10
2023-04-03T16:55:30.996Z,10.10
2023-04-03T16:57:57.783Z,10.10
2023-04-03T17:00:24.472Z,10.10
2023-04-03T17:02:51.319Z,10.10
2023-04-03T17:05:18.211Z,10.00
2023-04-03T17:07:44.971Z,9.90
2023-04-03T17:10:13.367Z,9.90
2023-04-03T17:12:40.079Z,9.80
2023-04-03T17:15:07.328Z,9.80
2023-04-03T17:17:35.644Z,9.70
2023-04-03T17:20:03.424Z,9.60
2023-04-03T17:22:30.901Z,9.60
2023-04-03T17:24:57.710Z,9.50
2023-04-03T17:27:24.479Z,9.50
2023-04-03T17:29:51.322Z,9.30
2023-04-03T17:32:18.175Z,9.30
2023-04-03T17:34:47.170Z,9.20
2023-04-03T17:37:14.228Z,9.20
2023-04-03T17:39:41.073Z,9.10
2023-04-03T17:42:07.761Z,9.10
2023-04-03T17:44:34.697Z,9.10
2023-04-03T17:47:01.657Z,9.10
2023-04-03T17:49:28.473Z,9.00
2023-04-03T17:51:56.045Z,9.00
2023-04-03T17:54:22.725Z,8.90
2023-04-03T17:56:49.401Z,8.90
2023-04-03T17:59:17.571Z,8.80
2023-04-03T18:01:47.761Z,8.80
2023-04-03T18:04:15.090Z,8.80
2023-04-03T18:06:46.190Z,8.80
2023-04-03T18:09:19.785Z,8.70
2023-04-03T18:11:48.180Z,8.70
2023-04-03T18:14:17.750Z,8.60
2023-04-03T18:16:44.552Z,8.60
2023-04-03T18:19:23.041Z,8.50
2023-04-03T18:21:52.337Z,8.50
2023-04-03T18:24:20.321Z,8.50
2023-04-03T18:26:51.468Z,8.30
2023-04-03T18:29:18.557Z,8.30
2023-04-03T18:31:49.835Z,8.20
2023-04-03T18:34:16.641Z,8.20
2023-04-03T18:36:43.449Z,8.10
2023-04-03T18:39:10.331Z,8.10
2023-04-03T18:41:37.758Z,8.10
2023-04-03T18:44:08.091Z,8.00
2023-04-03T18:46:35.067Z,8.00
2023-04-03T18:49:02.301Z,7.90
2023-04-03T18:51:29.700Z,8.00
2023-04-03T18:53:56.422Z,7.90
2023-04-03T18:56:23.255Z,7.80
2023-04-03T18:58:50.014Z,7.80
2023-04-03T19:01:17.366Z,7.70
2023-04-03T19:03:44.792Z,7.60
2023-04-03T19:06:11.605Z,7.60
2023-04-03T19:08:38.610Z,7.50
2023-04-03T19:11:05.290Z,7.50
2023-04-03T19:13:32.648Z,7.50
2023-04-03T19:16:00.042Z,7.50
2023-04-03T19:18:27.754Z,7.40
2023-04-03T19:20:59.078Z,7.40
2023-04-03T19:23:26.467Z,7.40
2023-04-03T19:26:05.655Z,7.40
2023-04-03T19:28:32.934Z,7.30
2023-04-03T19:31:00.598Z,7.30
2023-04-03T19:33:28.303Z,7.20
2023-04-03T19:35:55.581Z,7.20
2023-04-03T19:38:22.314Z,7.10
2023-04-03T19:40:49.218Z,7.10
2023-04-03T19:43:16.872Z,7.10
2023-04-03T19:45:45.961Z,7.00
2023-04-03T19:48:13.064Z,7.00
2023-04-03T19:50:39.896Z,6.90
2023-04-03T19:53:08.669Z,6.90
2023-04-03T19:55:36.304Z,6.90
2023-04-03T19:58:04.182Z,6.90
2023-04-03T20:00:31.642Z,6.80
2023-04-03T20:02:58.703Z,6.80
2023-04-03T20:05:25.818Z,6.70
2023-04-03T20:07:52.834Z,6.70
2023-04-03T20:10:20.324Z,6.70
2023-04-03T20:12:47.061Z,6.70
2023-04-03T20:15:13.979Z,6.60
2023-04-03T20:17:40.942Z,6.50
2023-04-03T20:20:08.377Z,6.50
2023-04-03T20:22:37.157Z,6.40
2023-04-03T20:25:10.213Z,6.40
2023-04-03T20:27:37.599Z,6.40
2023-04-03T20:30:08.742Z,6.40
2023-04-03T20:32:36.154Z,6.30
2023-04-03T20:35:04.732Z,6.30
2023-04-03T20:37:32.339Z,6.30
2023-04-03T20:39:59.102Z,6.20
2023-04-03T20:42:26.236Z,6.20
2023-04-03T20:44:53.056Z,6.20
2023-04-03T20:47:20.070Z,6.10
2023-04-03T20:49:46.897Z,6.10
2023-04-03T20:52:13.893Z,6.10
2023-04-03T20:54:41.409Z,6.00
2023-04-03T20:57:08.195Z,6.00
2023-04-03T20:59:35.789Z,6.00
2023-04-03T21:02:02.674Z,6.00
2023-04-03T21:04:42.186Z,5.90
2023-04-03T21:07:46.718Z,5.90
2023-04-03T21:10:50.449Z,5.90
2023-04-03T21:13:54.754Z,5.80
2023-04-03T21:16:21.704Z,5.80
2023-04-03T21:19:02.650Z,5.80
2023-04-03T21:21:29.466Z,5.80
2023-04-03T21:23:56.725Z,5.70
2023-04-03T21:26:26.539Z,5.70
2023-04-03T21:28:54.289Z,5.70
2023-04-03T21:31:23.187Z,5.60
2023-04-03T21:33:50.892Z,5.60
2023-04-03T21:36:17.894Z,5.60
2023-04-03T21:38:47.752Z,5.60
2023-04-03T21:41:14.550Z,5.50
2023-04-03T21:43:41.445Z,5.50
2023-04-03T21:46:08.227Z,5.50
2023-04-03T21:48:36.250Z,5.50
2023-04-03T21:51:07.108Z,5.40
2023-04-03T21:53:34.656Z,5.40
2023-04-03T21:56:02.434Z,5.40
2023-04-03T21:58:33.620Z,5.40
2023-04-03T22:01:14.054Z,5.30
2023-04-03T22:03:42.049Z,5.30
2023-04-03T22:06:10.040Z,5.30
2023-04-03T22:08:37.305Z,5.30
2023-04-03T22:11:09.542Z,5.30
2023-04-03T22:13:37.517Z,5.20
2023-04-03T22:16:04.572Z,5.20
2023-04-03T22:18:31.655Z,5.20
2023-04-03T22:20:58.833Z,5.20
2023-04-03T22:23:27.229Z,5.20
2023-04-03T22:26:08.493Z,5.10
2023-04-03T22:28:38.964Z,5.10
2023-04-03T22:31:10.880Z,5.10
2023-04-03T22:33:38.187Z,5.10
2023-04-03T22:36:06.690Z,5.10
2023-04-03T22:38:35.065Z,5.10
2023-04-03T22:41:03.629Z,5.10
2023-04-03T22:43:31.662Z,5.00
2023-04-03T22:46:00.456Z,5.00
2023-04-03T22:48:27.725Z,5.00
2023-04-03T22:50:55.594Z,5.00
2023-04-03T22:53:23.105Z,5.00
2023-04-03T22:56:01.273Z,4.90
2023-04-03T22:58:28.971Z,4.90
2023-04-03T23:01:04.795Z,4.90
2023-04-03T23:03:31.542Z,4.80
2023-04-03T23:05:58.403Z,4.90
2023-04-03T23:08:25.116Z,4.90
2023-04-03T23:10:55.795Z,4.80
2023-04-03T23:13:25.879Z,4.80
2023-04-03T23:15:56.773Z,4.80
2023-04-03T23:18:24.164Z,4.70
2023-04-03T23:20:55.210Z,4.70
2023-04-03T23:23:23.855Z,4.70
2023-04-03T23:25:59.273Z,4.60
2023-04-03T23:28:27.204Z,4.60
2023-04-03T23:31:02.154Z,4.60
2023-04-03T23:33:33.254Z,4.60
2023-04-03T23:36:05.830Z,4.60
2023-04-03T23:38:32.585Z,4.50
2023-04-03T23:40:59.485Z,4.50
2023-04-03T23:43:26.929Z,4.50
2023-04-03T23:45:54.407Z,4.50
2023-04-03T23:48:21.151Z,4.50
2023-04-03T23:50:47.934Z,4.50
2023-04-03T23:53:14.764Z,4.50
2023-04-03T23:55:42.104Z,4.50
2023-04-03T23:58:09.156Z,4.40
